Time,TemperatureF,DewpointF,PressureIn,WindDirection,WindDirectionDegrees,WindSpeedMPH,WindSpeedGustMPH,Humidity,HourlyPrecipIn,Conditions,Clouds,dailyrainin,SoftwareType,DateUTC
2013-03-17 00:00:00,61.2,45.3,29.90,WNW,285,0.0,0.0,46,0.00,,,0.00,dv,2013-03-17 04:00:00,
2013-03-17 00:05:00,61.1,45.2,29.90,West,278,3.2,3.2,46,0.00,,,0.00,dv,2013-03-17 04:05:00,
2013-03-17 00:10:00,60.9,45.4,29.90,SW,220,4.8,4.8,47,0.00,,,0.00,dv,2013-03-17 04:10:00,
2013-03-17 00:15:00,60.8,45.3,29.90,SSE,150,4.8,4.8,47,0.00,,,0.00,dv,2013-03-17 04:15:00,
2013-03-17 00:25:00,60.6,45.2,29.90,SSW,206,6.4,6.4,47,0.00,,,0.00,dv,2013-03-17 04:25:00,
2013-03-17 00:30:00,60.5,45.1,29.91,WNW,299,8.1,8.1,47,0.00,,,0.00,dv,2013-03-17 04:30:00,
2013-03-17 00:35:00,60.4,45.4,29.90,SW,226,6.4,6.4,48,0.00,,,0.00,dv,2013-03-17 04:35:00,
2013-03-17 00:40:00,60.3,44.9,29.90,WSW,254,6.4,6.4,47,0.00,,,0.00,dv,2013-03-17 04:40:00,
2013-03-17 00:45:00,60.3,45.3,29.90,WSW,242,9.7,9.7,48,0.00,,,0.00,dv,2013-03-17 04:45:00,
2013-03-17 00:50:00,60.2,45.2,29.90,SE,143,8.1,8.1,48,0.00,,,0.00,dv,2013-03-17 04:50:00,
2013-03-17 00:55:00,60.2,45.2,29.91,WSW,247,8.1,8.1,48,0.00,,,0.00,dv,2013-03-17 04:55:00,
2013-03-17 01:00:00,60.0,45.0,29.91,SSW,208,6.4,6.4,48,0.00,,,0.00,dv,2013-03-17 05:00:00,
2013-03-17 01:05:00,59.9,44.9,29.91,WSW,256,6.4,6.4,48,0.00,,,0.00,dv,2013-03-17 05:05:00,
2013-03-17 01:10:00,59.8,44.8,29.90,WNW,298,6.4,6.4,48,0.00,,,0.00,dv,2013-03-17 05:10:00,
2013-03-17 01:15:00,59.8,45.2,29.90,West,265,8.1,8.1,49,0.00,,,0.00,dv,2013-03-17 05:15:00,
2013-03-17 01:20:00,59.7,45.2,29.90,West,267,6.4,6.4,49,0.00,,,0.00,dv,2013-03-17 05:20:00,
2013-03-17 01:25:00,59.7,44.8,29.90,SW,214,9.7,9.7,48,0.00,,,0.00,dv,2013-03-17 05:25:00,
2013-03-17 01:30:00,59.7,44.8,29.90,WNW,282,6.4,6.4,48,0.00,,,0.00,dv,2013-03-17 05:30:00,
2013-03-17 01:35:00,59.7,44.8,29.90,WSW,242,8.1,8.1,48,0.00,,,0.00,dv,2013-03-17 05:35:00,
2013-03-17 01:40:00,59.7,44.8,29.90,SSW,209,11.3,11.3,48,0.00,,,0.00,dv,2013-03-17 05:40:00,
2013-03-17 01:45:00,59.7,44.8,29.90,SSE,164,4.8,4.8,48,0.00,,,0.00,dv,2013-03-17 05:45:00,
2013-03-17 01:50:00,59.6,44.7,29.90,West,280,8.1,8.1,48,0.00,,,0.00,dv,2013-03-17 05:50:00,
2013-03-17 01:55:00,59.6,44.7,29.89,West,271,6.4,6.4,48,0.00,,,0.00,dv,2013-03-17 05:55:00,
2013-03-17 02:00:00,59.6,44.7,29.90,SSW,212,8.1,8.1,48,0.00,,,0.00,dv,2013-03-17 06:00:00,
2013-03-17 02:05:00,59.4,44.5,29.90,SSW,195,6.4,6.4,48,0.00,,,0.00,dv,2013-03-17 06:05:00,
2013-03-17 02:10:00,59.4,44.9,29.90,South,190,8.1,8.1,49,0.00,,,0.00,dv,2013-03-17 06:10:00,
2013-03-17 02:15:00,59.2,44.7,29.90,West,260,8.1,8.1,49,0.00,,,0.00,dv,2013-03-17 06:15:00,
2013-03-17 02:20:00,59.1,44.6,29.90,West,275,4.8,4.8,49,0.00,,,0.00,dv,2013-03-17 06:20:00,
2013-03-17 02:25:00,59.0,44.9,29.89,WSW,248,6.4,6.4,50,0.00,,,0.00,dv,2013-03-17 06:25:00,
2013-03-17 02:30:00,59.0,44.9,29.89,WSW,240,4.8,4.8,50,0.00,,,0.00,dv,2013-03-17 06:30:00,
2013-03-17 02:35:00,58.8,44.7,29.90,NW,320,6.4,6.4,50,0.00,,,0.00,dv,2013-03-17 06:35:00,
2013-03-17 02:40:00,58.7,44.6,29.90,West,281,4.8,4.8,50,0.00,,,0.00,dv,2013-03-17 06:40:00,
2013-03-17 02:45:00,58.7,44.6,29.90,WSW,242,3.2,3.2,50,0.00,,,0.00,dv,2013-03-17 06:45:00,
2013-03-17 02:50:00,58.6,44.6,29.89,WNW,288,4.8,4.8,50,0.00,,,0.00,dv,2013-03-17 06:50:00,
2013-03-17 02:55:00,58.6,44.6,29.90,West,259,4.8,4.8,50,0.00,,,0.00,dv,2013-03-17 06:55:00,
2013-03-17 03:00:00,58.5,44.5,29.90,West,259,3.2,3.2,50,0.00,,,0.00,dv,2013-03-17 07:00:00,
2013-03-17 03:05:00,58.4,44.4,29.90,West,259,1.6,1.6,50,0.00,,,0.00,dv,2013-03-17 07:05:00,
2013-03-17 03:10:00,58.2,44.2,29.90,West,259,0.0,0.0,50,0.00,,,0.00,dv,2013-03-17 07:10:00,
2013-03-17 03:15:00,58.1,44.5,29.90,West,259,1.6,1.6,51,0.00,,,0.00,dv,2013-03-17 07:15:00,
2013-03-17 03:20:00,57.9,44.3,29.90,West,259,1.6,1.6,51,0.00,,,0.00,dv,2013-03-17 07:20:00,
2013-03-17 03:25:00,57.7,44.1,29.90,West,259,0.0,0.0,51,0.00,,,0.00,dv,2013-03-17 07:25:00,
2013-03-17 03:30:00,57.5,43.9,29.90,WSW,253,3.2,3.2,51,0.00,,,0.00,dv,2013-03-17 07:30:00,
2013-03-17 03:35:00,57.4,44.2,29.89,WSW,252,1.6,1.6,52,0.00,,,0.00,dv,2013-03-17 07:35:00,
2013-03-17 03:40:00,57.2,44.0,29.90,WSW,252,0.0,0.0,52,0.00,,,0.00,dv,2013-03-17 07:40:00,
2013-03-17 03:45:00,57.0,44.2,29.89,WSW,253,1.6,1.6,53,0.00,,,0.00,dv,2013-03-17 07:45:00,
2013-03-17 03:50:00,56.8,44.0,29.89,WSW,253,3.2,3.2,53,0.00,,,0.00,dv,2013-03-17 07:50:00,
2013-03-17 03:55:00,56.6,43.9,29.89,WSW,253,0.0,0.0,53,0.00,,,0.00,dv,2013-03-17 07:55:00,
2013-03-17 04:00:00,56.4,43.7,29.89,WSW,252,0.0,0.0,53,0.00,,,0.00,dv,2013-03-17 08:00:00,
2013-03-17 04:05:00,56.2,43.8,29.89,WSW,253,1.6,1.6,54,0.00,,,0.00,dv,2013-03-17 08:05:00,
2013-03-17 04:10:00,56.0,43.7,29.89,WSW,253,0.0,0.0,54,0.00,,,0.00,dv,2013-03-17 08:10:00,
2013-03-17 04:15:00,55.9,43.6,29.89,WSW,252,0.0,0.0,54,0.00,,,0.00,dv,2013-03-17 08:15:00,
2013-03-17 04:20:00,55.6,43.6,29.89,WSW,253,0.0,0.0,55,0.00,,,0.00,dv,2013-03-17 08:20:00,
2013-03-17 04:25:00,55.4,43.5,29.89,WSW,253,0.0,0.0,55,0.00,,,0.00,dv,2013-03-17 08:25:00,
2013-03-17 04:30:00,55.3,43.4,29.89,WSW,253,1.6,1.6,55,0.00,,,0.00,dv,2013-03-17 08:30:00,
2013-03-17 04:40:00,55.0,43.4,29.88,WSW,253,0.0,0.0,56,0.00,,,0.00,dv,2013-03-17 08:40:00,
2013-03-17 04:45:00,54.9,43.3,29.88,WSW,253,0.0,0.0,56,0.00,,,0.00,dv,2013-03-17 08:45:00,
2013-03-17 04:50:00,54.7,43.2,29.88,WSW,252,0.0,0.0,56,0.00,,,0.00,dv,2013-03-17 08:50:00,
2013-03-17 04:55:00,54.6,43.4,29.88,WSW,252,0.0,0.0,57,0.00,,,0.00,dv,2013-03-17 08:55:00,
2013-03-17 05:00:00,54.4,43.2,29.89,SE,130,1.6,1.6,57,0.00,,,0.00,dv,2013-03-17 09:00:00,
2013-03-17 05:05:00,54.2,43.4,29.89,SE,131,0.0,0.0,58,0.00,,,0.00,dv,2013-03-17 09:05:00,
2013-03-17 05:10:00,54.0,43.2,29.88,SE,130,0.0,0.0,58,0.00,,,0.00,dv,2013-03-17 09:10:00,
2013-03-17 05:15:00,53.8,43.3,29.88,SSE,151,1.6,1.6,59,0.00,,,0.00,dv,2013-03-17 09:15:00,
2013-03-17 05:20:00,53.6,43.1,29.89,SSE,151,1.6,1.6,59,0.00,,,0.00,dv,2013-03-17 09:20:00,
2013-03-17 05:25:00,53.4,43.3,29.89,SSE,154,0.0,0.0,60,0.00,,,0.00,dv,2013-03-17 09:25:00,
2013-03-17 05:30:00,53.2,43.1,29.89,WNW,286,1.6,1.6,60,0.00,,,0.00,dv,2013-03-17 09:30:00,
2013-03-17 05:35:00,53.1,43.0,29.89,West,265,3.2,3.2,60,0.00,,,0.00,dv,2013-03-17 09:35:00,
2013-03-17 05:40:00,53.0,43.2,29.89,SSE,168,1.6,1.6,61,0.00,,,0.00,dv,2013-03-17 09:40:00,
2013-03-17 05:45:00,52.9,43.1,29.89,WNW,282,3.2,3.2,61,0.00,,,0.00,dv,2013-03-17 09:45:00,
2013-03-17 05:50:00,52.9,43.1,29.89,West,274,1.6,1.6,61,0.00,,,0.00,dv,2013-03-17 09:50:00,
2013-03-17 05:55:00,52.9,43.4,29.90,West,262,3.2,3.2,62,0.00,,,0.00,dv,2013-03-17 09:55:00,
2013-03-17 06:00:00,52.9,43.4,29.90,West,279,1.6,1.6,62,0.00,,,0.00,dv,2013-03-17 10:00:00,
2013-03-17 06:05:00,52.8,43.3,29.90,West,279,0.0,0.0,62,0.00,,,0.00,dv,2013-03-17 10:05:00,
2013-03-17 06:10:00,52.8,43.6,29.91,West,279,1.6,1.6,63,0.00,,,0.00,dv,2013-03-17 10:10:00,
2013-03-17 06:15:00,52.7,43.6,29.91,West,279,0.0,0.0,63,0.00,,,0.00,dv,2013-03-17 10:15:00,
2013-03-17 06:20:00,52.6,43.8,29.91,West,271,3.2,3.2,64,0.00,,,0.00,dv,2013-03-17 10:20:00,
2013-03-17 06:25:00,52.5,43.7,29.92,West,271,1.6,1.6,64,0.00,,,0.00,dv,2013-03-17 10:25:00,
2013-03-17 06:30:00,52.4,43.9,29.92,West,272,3.2,3.2,65,0.00,,,0.00,dv,2013-03-17 10:30:00,
2013-03-17 06:35:00,52.3,43.8,29.92,WNW,300,4.8,4.8,65,0.00,,,0.00,dv,2013-03-17 10:35:00,
2013-03-17 06:40:00,52.3,44.1,29.92,WNW,300,3.2,3.2,66,0.00,,,0.00,dv,2013-03-17 10:40:00,
2013-03-17 06:45:00,52.2,44.3,29.92,WNW,287,1.6,1.6,67,0.00,,,0.00,dv,2013-03-17 10:45:00,
2013-03-17 06:50:00,52.2,44.3,29.92,WNW,288,3.2,3.2,67,0.00,,,0.00,dv,2013-03-17 10:50:00,
2013-03-17 06:55:00,52.2,44.6,29.92,WNW,288,1.6,1.6,68,0.00,,,0.00,dv,2013-03-17 10:55:00,
2013-03-17 07:00:00,52.1,44.2,29.92,WNW,287,0.0,0.0,67,0.00,,,0.00,dv,2013-03-17 11:00:00,
2013-03-17 07:05:00,52.0,44.1,29.92,WNW,288,0.0,0.0,67,0.00,,,0.00,dv,2013-03-17 11:05:00,
2013-03-17 07:10:00,51.9,44.3,29.91,WNW,288,1.6,1.6,68,0.00,,,0.00,dv,2013-03-17 11:10:00,
2013-03-17 07:15:00,51.9,44.3,29.91,WSW,250,4.8,4.8,68,0.00,,,0.00,dv,2013-03-17 11:15:00,
2013-03-17 07:20:00,51.9,44.0,29.91,WSW,250,0.0,0.0,67,0.00,,,0.00,dv,2013-03-17 11:20:00,
2013-03-17 07:25:00,51.8,44.2,29.91,WNW,286,4.8,4.8,68,0.00,,,0.00,dv,2013-03-17 11:25:00,
2013-03-17 07:30:00,51.9,44.6,29.91,SW,223,6.4,6.4,69,0.00,,,0.00,dv,2013-03-17 11:30:00,
2013-03-17 07:35:00,51.9,44.6,29.92,SW,236,3.2,3.2,69,0.00,,,0.00,dv,2013-03-17 11:35:00,
2013-03-17 07:40:00,51.9,44.8,29.92,South,176,4.8,4.8,70,0.00,,,0.00,dv,2013-03-17 11:40:00,
2013-03-17 07:45:00,52.0,44.9,29.92,WNW,292,3.2,3.2,70,0.00,,,0.00,dv,2013-03-17 11:45:00,
2013-03-17 07:50:00,52.1,45.0,29.92,WNW,285,4.8,4.8,70,0.00,,,0.00,dv,2013-03-17 11:50:00,
2013-03-17 07:55:00,52.2,45.4,29.92,SW,216,8.1,8.1,71,0.00,,,0.00,dv,2013-03-17 11:55:00,
2013-03-17 08:00:00,52.3,45.5,29.92,SW,229,6.4,6.4,71,0.00,,,0.00,dv,2013-03-17 12:00:00,
2013-03-17 08:05:00,52.5,45.9,29.92,WSW,238,6.4,6.4,72,0.00,,,0.00,dv,2013-03-17 12:05:00,
2013-03-17 08:10:00,52.7,46.1,29.93,SW,222,6.4,6.4,72,0.00,,,0.00,dv,2013-03-17 12:10:00,
2013-03-17 08:15:00,52.8,46.2,29.93,West,265,9.7,9.7,72,0.00,,,0.00,dv,2013-03-17 12:15:00,
2013-03-17 08:20:00,53.1,46.5,29.93,South,189,4.8,4.8,72,0.00,,,0.00,dv,2013-03-17 12:20:00,
2013-03-17 08:25:00,53.2,46.9,29.93,SW,236,9.7,9.7,73,0.00,,,0.00,dv,2013-03-17 12:25:00,
2013-03-17 08:30:00,53.4,46.8,29.93,WSW,241,6.4,6.4,72,0.00,,,0.00,dv,2013-03-17 12:30:00,
2013-03-17 08:35:00,53.5,46.9,29.93,SSW,203,4.8,4.8,72,0.00,,,0.00,dv,2013-03-17 12:35:00,
2013-03-17 08:40:00,53.5,46.6,29.94,SSW,196,3.2,3.2,71,0.00,,,0.00,dv,2013-03-17 12:40:00,
2013-03-17 08:45:00,53.6,47.0,29.94,WSW,243,8.1,8.1,72,0.00,,,0.00,dv,2013-03-17 12:45:00,
2013-03-17 08:50:00,53.7,47.1,29.94,SSW,211,9.7,9.7,72,0.00,,,0.00,dv,2013-03-17 12:50:00,
2013-03-17 08:55:00,53.8,46.9,29.95,SW,235,6.4,6.4,71,0.00,,,0.00,dv,2013-03-17 12:55:00,
2013-03-17 09:00:00,53.9,47.3,29.95,WSW,242,11.3,11.3,72,0.00,,,0.00,dv,2013-03-17 13:00:00,
2013-03-17 09:05:00,54.0,47.4,29.95,West,269,4.8,4.8,72,0.00,,,0.00,dv,2013-03-17 13:05:00,
2013-03-17 09:10:00,54.2,47.6,29.95,SW,227,8.1,8.1,72,0.00,,,0.00,dv,2013-03-17 13:10:00,
2013-03-17 09:15:00,54.5,47.9,29.95,SW,230,8.1,8.1,72,0.00,,,0.00,dv,2013-03-17 13:15:00,
2013-03-17 09:20:00,54.8,48.4,29.95,WNW,303,9.7,9.7,73,0.00,,,0.00,dv,2013-03-17 13:20:00,
2013-03-17 09:25:00,55.0,48.3,29.95,WSW,243,11.3,11.3,72,0.00,,,0.00,dv,2013-03-17 13:25:00,
2013-03-17 09:30:00,55.2,48.5,29.95,SSE,155,8.1,8.1,72,0.00,,,0.00,dv,2013-03-17 13:30:00,
2013-03-17 09:35:00,55.5,49.1,29.95,WNW,294,8.1,8.1,73,0.00,,,0.00,dv,2013-03-17 13:35:00,
2013-03-17 09:40:00,55.7,49.3,29.95,West,281,4.8,4.8,73,0.00,,,0.00,dv,2013-03-17 13:40:00,
2013-03-17 09:45:00,56.1,49.7,29.94,West,281,9.7,9.7,73,0.00,,,0.00,dv,2013-03-17 13:45:00,
2013-03-17 09:50:00,56.3,49.9,29.95,South,182,12.9,12.9,73,0.00,,,0.00,dv,2013-03-17 13:50:00,
2013-03-17 09:55:00,56.7,50.2,29.95,West,273,12.9,12.9,73,0.00,,,0.00,dv,2013-03-17 13:55:00,
2013-03-17 10:00:00,57.0,50.2,29.95,SW,217,8.1,8.1,72,0.00,,,0.00,dv,2013-03-17 14:00:00,
2013-03-17 10:05:00,57.3,50.5,29.94,SW,227,9.7,9.7,72,0.00,,,0.00,dv,2013-03-17 14:05:00,
2013-03-17 10:10:00,57.5,50.7,29.95,West,271,11.3,11.3,72,0.00,,,0.00,dv,2013-03-17 14:10:00,
2013-03-17 10:15:00,57.9,51.1,29.95,WSW,256,6.4,6.4,72,0.00,,,0.00,dv,2013-03-17 14:15:00,
2013-03-17 10:20:00,58.3,51.5,29.95,WNW,294,12.9,12.9,72,0.00,,,0.00,dv,2013-03-17 14:20:00,
2013-03-17 10:25:00,58.7,51.6,29.95,SSE,160,6.4,6.4,71,0.00,,,0.00,dv,2013-03-17 14:25:00,
2013-03-17 10:30:00,59.2,51.8,29.95,West,269,12.9,12.9,70,0.00,,,0.00,dv,2013-03-17 14:30:00,
2013-03-17 10:35:00,59.4,52.0,29.95,West,263,12.9,12.9,70,0.00,,,0.00,dv,2013-03-17 14:35:00,
2013-03-17 10:40:00,59.5,52.1,29.95,WSW,246,12.9,12.9,70,0.00,,,0.00,dv,2013-03-17 14:40:00,
2013-03-17 10:45:00,59.8,52.3,29.95,SW,235,6.4,6.4,70,0.00,,,0.00,dv,2013-03-17 14:45:00,
2013-03-17 10:50:00,60.2,52.7,29.95,WSW,242,17.7,17.7,70,0.00,,,0.00,dv,2013-03-17 14:50:00,
2013-03-17 10:55:00,60.4,52.6,29.95,SW,220,9.7,9.7,69,0.00,,,0.00,dv,2013-03-17 14:55:00,
2013-03-17 11:00:00,60.8,53.0,29.95,SSW,201,6.4,6.4,69,0.00,,,0.00,dv,2013-03-17 15:00:00,
2013-03-17 11:05:00,61.1,53.0,29.95,South,191,9.7,9.7,68,0.00,,,0.00,dv,2013-03-17 15:05:00,
2013-03-17 11:10:00,61.4,53.3,29.95,SW,219,11.3,11.3,68,0.00,,,0.00,dv,2013-03-17 15:10:00,
2013-03-17 11:15:00,61.5,53.1,29.94,West,271,9.7,9.7,67,0.00,,,0.00,dv,2013-03-17 15:15:00,
2013-03-17 11:20:00,61.8,53.3,29.95,SW,222,6.4,6.4,67,0.00,,,0.00,dv,2013-03-17 15:20:00,
2013-03-17 11:25:00,61.9,53.1,29.94,SW,223,8.1,8.1,66,0.00,,,0.00,dv,2013-03-17 15:25:00,
2013-03-17 11:30:00,62.0,53.2,29.94,WSW,244,8.1,8.1,66,0.00,,,0.00,dv,2013-03-17 15:30:00,
2013-03-17 11:35:00,62.1,53.6,29.94,WSW,237,9.7,9.7,67,0.00,,,0.00,dv,2013-03-17 15:35:00,
2013-03-17 11:40:00,62.3,53.8,29.94,West,273,8.1,8.1,67,0.00,,,0.00,dv,2013-03-17 15:40:00,
2013-03-17 11:45:00,62.7,53.6,29.94,WNW,289,6.4,6.4,65,0.00,,,0.00,dv,2013-03-17 15:45:00,
2013-03-17 11:50:00,63.0,53.9,29.95,WNW,296,6.4,6.4,65,0.00,,,0.00,dv,2013-03-17 15:50:00,
2013-03-17 11:55:00,63.2,53.7,29.94,SW,224,8.1,8.1,64,0.00,,,0.00,dv,2013-03-17 15:55:00,
2013-03-17 12:00:00,63.5,54.3,29.95,SW,228,8.1,8.1,65,0.00,,,0.00,dv,2013-03-17 16:00:00,
2013-03-17 12:05:00,64.0,54.5,29.94,WNW,287,9.7,9.7,64,0.00,,,0.00,dv,2013-03-17 16:05:00,
2013-03-17 12:10:00,64.4,54.5,29.94,WSW,247,9.7,9.7,63,0.00,,,0.00,dv,2013-03-17 16:10:00,
2013-03-17 12:15:00,64.5,54.3,29.93,SW,234,12.9,12.9,62,0.00,,,0.00,dv,2013-03-17 16:15:00,
2013-03-17 12:20:00,64.4,54.2,29.93,SW,226,11.3,11.3,62,0.00,,,0.00,dv,2013-03-17 16:20:00,
2013-03-17 12:25:00,64.5,54.6,29.93,WSW,250,12.9,12.9,63,0.00,,,0.00,dv,2013-03-17 16:25:00,
2013-03-17 12:30:00,64.8,54.9,29.93,West,264,6.4,6.4,63,0.00,,,0.00,dv,2013-03-17 16:30:00,
2013-03-17 12:35:00,65.1,54.8,29.93,SW,214,4.8,4.8,62,0.00,,,0.00,dv,2013-03-17 16:35:00,
2013-03-17 12:40:00,65.3,55.0,29.93,SW,234,11.3,11.3,62,0.00,,,0.00,dv,2013-03-17 16:40:00,
2013-03-17 12:45:00,65.3,54.7,29.93,SW,234,11.3,11.3,61,0.00,,,0.00,dv,2013-03-17 16:45:00,
2013-03-17 12:50:00,65.2,54.6,29.93,WNW,297,6.4,6.4,61,0.00,,,0.00,dv,2013-03-17 16:50:00,
2013-03-17 12:55:00,65.2,54.6,29.93,West,274,9.7,9.7,61,0.00,,,0.00,dv,2013-03-17 16:55:00,
2013-03-17 13:00:00,65.3,54.7,29.92,South,185,8.1,8.1,61,0.00,,,0.00,dv,2013-03-17 17:00:00,
2013-03-17 13:05:00,65.4,54.4,29.92,West,268,14.5,14.5,60,0.00,,,0.00,dv,2013-03-17 17:05:00,
2013-03-17 13:10:00,65.4,54.4,29.92,SSW,212,11.3,11.3,60,0.00,,,0.00,dv,2013-03-17 17:10:00,
2013-03-17 13:15:00,65.4,54.8,29.91,SSW,209,8.1,8.1,61,0.00,,,0.00,dv,2013-03-17 17:15:00,
2013-03-17 13:20:00,65.7,55.1,29.91,WNW,298,16.1,16.1,61,0.00,,,0.00,dv,2013-03-17 17:20:00,
2013-03-17 13:25:00,66.0,54.7,29.91,SSW,208,16.1,16.1,59,0.00,,,0.00,dv,2013-03-17 17:25:00,
2013-03-17 13:35:00,66.4,55.0,29.91,WSW,245,12.9,12.9,59,0.00,,,0.00,dv,2013-03-17 17:35:00,
2013-03-17 13:40:00,66.6,54.9,29.91,WSW,250,9.7,9.7,58,0.00,,,0.00,dv,2013-03-17 17:40:00,
2013-03-17 13:50:00,67.0,55.2,29.90,SSW,211,3.2,3.2,58,0.00,,,0.00,dv,2013-03-17 17:50:00,
2013-03-17 13:55:00,67.5,55.3,29.90,SSW,199,12.9,12.9,57,0.00,,,0.00,dv,2013-03-17 17:55:00,
2013-03-17 14:00:00,67.5,55.0,29.89,SW,231,16.1,16.1,56,0.00,,,0.00,dv,2013-03-17 18:00:00,
2013-03-17 14:05:00,67.6,55.1,29.89,WNW,290,11.3,11.3,56,0.00,,,0.00,dv,2013-03-17 18:05:00,
2013-03-17 14:10:00,67.6,55.4,29.89,SSW,213,6.4,6.4,57,0.00,,,0.00,dv,2013-03-17 18:10:00,
2013-03-17 14:15:00,67.6,55.1,29.89,SW,233,11.3,11.3,56,0.00,,,0.00,dv,2013-03-17 18:15:00,
2013-03-17 14:20:00,67.5,55.0,29.89,West,263,9.7,9.7,56,0.00,,,0.00,dv,2013-03-17 18:20:00,
2013-03-17 14:25:00,67.6,54.7,29.89,SW,229,6.4,6.4,55,0.00,,,0.00,dv,2013-03-17 18:25:00,
2013-03-17 14:30:00,67.6,55.1,29.89,NE,52,9.7,9.7,56,0.00,,,0.00,dv,2013-03-17 18:30:00,
2013-03-17 14:35:00,67.8,54.9,29.89,West,264,14.5,14.5,55,0.00,,,0.00,dv,2013-03-17 18:35:00,
2013-03-17 14:40:00,67.9,55.0,29.89,WSW,238,12.9,12.9,55,0.00,,,0.00,dv,2013-03-17 18:40:00,
2013-03-17 14:45:00,68.0,54.3,29.88,West,261,17.7,17.7,53,0.00,,,0.00,dv,2013-03-17 18:45:00,
2013-03-17 14:50:00,68.0,54.3,29.88,SSW,201,9.7,9.7,53,0.00,,,0.00,dv,2013-03-17 18:50:00,
2013-03-17 14:55:00,68.1,54.0,29.88,SW,232,12.9,12.9,52,0.00,,,0.00,dv,2013-03-17 18:55:00,
2013-03-17 15:00:00,68.2,54.5,29.87,NW,311,9.7,9.7,53,0.00,,,0.00,dv,2013-03-17 19:00:00,
2013-03-17 15:05:00,68.5,54.3,29.87,SE,145,8.1,8.1,52,0.00,,,0.00,dv,2013-03-17 19:05:00,
2013-03-17 15:10:00,68.7,54.5,29.87,West,259,12.9,12.9,52,0.00,,,0.00,dv,2013-03-17 19:10:00,
2013-03-17 15:15:00,68.7,54.5,29.87,SW,215,12.9,12.9,52,0.00,,,0.00,dv,2013-03-17 19:15:00,
2013-03-17 15:20:00,68.7,54.5,29.86,SSW,209,8.1,8.1,52,0.00,,,0.00,dv,2013-03-17 19:20:00,
2013-03-17 15:25:00,68.8,54.6,29.87,WSW,243,8.1,8.1,52,0.00,,,0.00,dv,2013-03-17 19:25:00,
2013-03-17 15:30:00,68.8,54.6,29.86,West,272,11.3,11.3,52,0.00,,,0.00,dv,2013-03-17 19:30:00,
2013-03-17 15:35:00,68.8,54.2,29.86,SW,234,11.3,11.3,51,0.00,,,0.00,dv,2013-03-17 19:35:00,
2013-03-17 15:45:00,69.5,54.8,29.86,SW,231,9.7,9.7,51,0.00,,,0.00,dv,2013-03-17 19:45:00,
2013-03-17 15:50:00,69.5,54.8,29.86,SSW,205,14.5,14.5,51,0.00,,,0.00,dv,2013-03-17 19:50:00,
2013-03-17 16:00:00,69.1,54.5,29.86,WSW,244,17.7,17.7,51,0.00,,,0.00,dv,2013-03-17 20:00:00,
2013-03-17 16:05:00,69.0,54.8,29.86,WSW,255,9.7,9.7,52,0.00,,,0.00,dv,2013-03-17 20:05:00,
2013-03-17 16:10:00,69.0,54.8,29.85,WSW,241,12.9,12.9,52,0.00,,,0.00,dv,2013-03-17 20:10:00,
2013-03-17 16:15:00,69.0,54.8,29.85,SW,229,4.8,4.8,52,0.00,,,0.00,dv,2013-03-17 20:15:00,
2013-03-17 16:20:00,68.9,54.7,29.85,SSW,205,14.5,14.5,52,0.00,,,0.00,dv,2013-03-17 20:20:00,
2013-03-17 16:25:00,68.9,54.3,29.85,SW,226,8.1,8.1,51,0.00,,,0.00,dv,2013-03-17 20:25:00,
2013-03-17 16:30:00,68.9,54.7,29.85,SSE,151,6.4,6.4,52,0.00,,,0.00,dv,2013-03-17 20:30:00,
2013-03-17 16:35:00,68.8,54.2,29.85,WSW,250,9.7,9.7,51,0.00,,,0.00,dv,2013-03-17 20:35:00,
2013-03-17 16:40:00,68.8,54.6,29.85,West,263,11.3,11.3,52,0.00,,,0.00,dv,2013-03-17 20:40:00,
2013-03-17 16:45:00,68.8,54.2,29.84,SSW,207,9.7,9.7,51,0.00,,,0.00,dv,2013-03-17 20:45:00,
2013-03-17 16:50:00,68.7,54.1,29.84,SSW,202,6.4,6.4,51,0.00,,,0.00,dv,2013-03-17 20:50:00,
2013-03-17 16:55:00,68.6,54.4,29.85,West,259,9.7,9.7,52,0.00,,,0.00,dv,2013-03-17 20:55:00,
2013-03-17 17:00:00,68.6,54.0,29.85,WSW,258,6.4,6.4,51,0.00,,,0.00,dv,2013-03-17 21:00:00,
2013-03-17 17:05:00,68.6,53.6,29.85,SW,218,3.2,3.2,50,0.00,,,0.00,dv,2013-03-17 21:05:00,
2013-03-17 17:10:00,68.5,53.9,29.85,West,270,12.9,12.9,51,0.00,,,0.00,dv,2013-03-17 21:10:00,
2013-03-17 17:15:00,68.4,53.8,29.85,SSW,195,3.2,3.2,51,0.00,,,0.00,dv,2013-03-17 21:15:00,
2013-03-17 17:20:00,68.4,54.2,29.85,SW,225,4.8,4.8,52,0.00,,,0.00,dv,2013-03-17 21:20:00,
2013-03-17 17:25:00,68.3,53.8,29.85,SW,227,4.8,4.8,51,0.00,,,0.00,dv,2013-03-17 21:25:00,
2013-03-17 17:30:00,68.4,53.8,29.85,ESE,106,6.4,6.4,51,0.00,,,0.00,dv,2013-03-17 21:30:00,
2013-03-17 17:35:00,68.4,53.4,29.85,NNW,330,3.2,3.2,50,0.00,,,0.00,dv,2013-03-17 21:35:00,
2013-03-17 17:40:00,68.3,52.5,29.85,SW,230,8.1,8.1,48,0.00,,,0.00,dv,2013-03-17 21:40:00,
2013-03-17 17:45:00,68.4,53.0,29.84,WSW,242,6.4,6.4,49,0.00,,,0.00,dv,2013-03-17 21:45:00,
2013-03-17 17:50:00,68.6,52.8,29.84,SSW,193,12.9,12.9,48,0.00,,,0.00,dv,2013-03-17 21:50:00,
2013-03-17 17:55:00,68.6,52.8,29.85,West,261,4.8,4.8,48,0.00,,,0.00,dv,2013-03-17 21:55:00,
2013-03-17 18:00:00,68.5,52.7,29.84,SW,215,4.8,4.8,48,0.00,,,0.00,dv,2013-03-17 22:00:00,
2013-03-17 18:05:00,68.3,51.6,29.85,WSW,245,9.7,9.7,46,0.00,,,0.00,dv,2013-03-17 22:05:00,
2013-03-17 18:10:00,68.2,52.0,29.85,WSW,248,3.2,3.2,47,0.00,,,0.00,dv,2013-03-17 22:10:00,
2013-03-17 18:15:00,68.0,51.8,29.85,SW,234,4.8,4.8,47,0.00,,,0.00,dv,2013-03-17 22:15:00,
2013-03-17 18:20:00,67.9,52.2,29.84,South,172,9.7,9.7,48,0.00,,,0.00,dv,2013-03-17 22:20:00,
2013-03-17 18:25:00,67.8,52.1,29.84,SW,236,3.2,3.2,48,0.00,,,0.00,dv,2013-03-17 22:25:00,
2013-03-17 18:30:00,67.6,51.5,29.85,West,279,9.7,9.7,47,0.00,,,0.00,dv,2013-03-17 22:30:00,
2013-03-17 18:35:00,67.5,51.4,29.85,SSW,201,6.4,6.4,47,0.00,,,0.00,dv,2013-03-17 22:35:00,
2013-03-17 18:40:00,67.3,51.2,29.85,WSW,253,6.4,6.4,47,0.00,,,0.00,dv,2013-03-17 22:40:00,
2013-03-17 18:45:00,67.0,50.9,29.85,SW,232,11.3,11.3,47,0.00,,,0.00,dv,2013-03-17 22:45:00,
2013-03-17 18:50:00,66.8,50.7,29.85,SW,230,1.6,1.6,47,0.00,,,0.00,dv,2013-03-17 22:50:00,
2013-03-17 18:55:00,66.7,51.1,29.85,WSW,243,1.6,1.6,48,0.00,,,0.00,dv,2013-03-17 22:55:00,
2013-03-17 19:00:00,66.5,51.3,29.85,WSW,242,0.0,0.0,49,0.00,,,0.00,dv,2013-03-17 23:00:00,
2013-03-17 19:05:00,66.4,51.6,29.85,SSW,195,3.2,3.2,50,0.00,,,0.00,dv,2013-03-17 23:05:00,
2013-03-17 19:10:00,66.2,51.8,29.85,WSW,247,6.4,6.4,51,0.00,,,0.00,dv,2013-03-17 23:10:00,
2013-03-17 19:15:00,66.0,51.7,29.85,WSW,255,4.8,4.8,51,0.00,,,0.00,dv,2013-03-17 23:15:00,
2013-03-17 19:20:00,65.7,51.8,29.86,WSW,255,1.6,1.6,52,0.00,,,0.00,dv,2013-03-17 23:20:00,
2013-03-17 19:25:00,65.5,51.6,29.85,SSW,211,4.8,4.8,52,0.00,,,0.00,dv,2013-03-17 23:25:00,
2013-03-17 19:30:00,65.2,51.3,29.86,WSW,241,6.4,6.4,52,0.00,,,0.00,dv,2013-03-17 23:30:00,
2013-03-17 19:40:00,64.6,51.2,29.86,SW,228,8.1,8.1,53,0.00,,,0.00,dv,2013-03-17 23:40:00,
2013-03-17 19:50:00,64.2,50.8,29.87,SW,227,3.2,3.2,53,0.00,,,0.00,dv,2013-03-17 23:50:00,
2013-03-17 19:55:00,63.9,50.5,29.87,West,260,1.6,1.6,53,0.00,,,0.00,dv,2013-03-17 23:55:00,
2013-03-17 20:00:00,63.7,50.7,29.87,SW,236,4.8,4.8,54,0.00,,,0.00,dv,2013-03-18 00:00:00,
2013-03-17 20:05:00,63.5,50.5,29.87,NW,322,6.4,6.4,54,0.00,,,0.00,dv,2013-03-18 00:05:00,
2013-03-17 20:15:00,63.2,50.3,29.88,NW,320,1.6,1.6,54,0.00,,,0.00,dv,2013-03-18 00:15:00,
2013-03-17 20:20:00,63.0,50.1,29.88,NW,321,1.6,1.6,54,0.00,,,0.00,dv,2013-03-18 00:20:00,
2013-03-17 20:25:00,62.9,50.0,29.88,WNW,296,1.6,1.6,54,0.00,,,0.00,dv,2013-03-18 00:25:00,
2013-03-17 20:30:00,62.8,49.9,29.88,WNW,296,0.0,0.0,54,0.00,,,0.00,dv,2013-03-18 00:30:00,
2013-03-17 20:35:00,62.7,50.2,29.88,WNW,296,0.0,0.0,55,0.00,,,0.00,dv,2013-03-18 00:35:00,
2013-03-17 20:40:00,62.6,50.1,29.88,WNW,296,0.0,0.0,55,0.00,,,0.00,dv,2013-03-18 00:40:00,
2013-03-17 20:45:00,62.5,50.0,29.88,WNW,296,0.0,0.0,55,0.00,,,0.00,dv,2013-03-18 00:45:00,
2013-03-17 20:50:00,62.3,50.2,29.89,WSW,257,3.2,3.2,56,0.00,,,0.00,dv,2013-03-18 00:50:00,
2013-03-17 20:55:00,62.2,50.1,29.89,WSW,257,0.0,0.0,56,0.00,,,0.00,dv,2013-03-18 00:55:00,
2013-03-17 21:00:00,62.0,49.9,29.89,WSW,257,1.6,1.6,56,0.00,,,0.00,dv,2013-03-18 01:00:00,
2013-03-17 21:10:00,61.8,49.7,29.89,WSW,257,0.0,0.0,56,0.00,,,0.00,dv,2013-03-18 01:10:00,
2013-03-17 21:15:00,61.6,49.9,29.89,WSW,257,1.6,1.6,57,0.00,,,0.00,dv,2013-03-18 01:15:00,
2013-03-17 21:20:00,61.5,49.8,29.89,WSW,257,0.0,0.0,57,0.00,,,0.00,dv,2013-03-18 01:20:00,
2013-03-17 21:25:00,61.4,49.7,29.89,WSW,257,1.6,1.6,57,0.00,,,0.00,dv,2013-03-18 01:25:00,
2013-03-17 21:30:00,61.3,49.6,29.89,WSW,257,0.0,0.0,57,0.00,,,0.00,dv,2013-03-18 01:30:00,
2013-03-17 21:35:00,61.2,49.9,29.89,WSW,257,1.6,1.6,58,0.00,,,0.00,dv,2013-03-18 01:35:00,
2013-03-17 21:40:00,61.1,49.4,29.89,WSW,257,0.0,0.0,57,0.00,,,0.00,dv,2013-03-18 01:40:00,
2013-03-17 21:45:00,61.0,49.7,29.90,WSW,257,0.0,0.0,58,0.00,,,0.00,dv,2013-03-18 01:45:00,
2013-03-17 21:50:00,60.9,49.6,29.90,WSW,257,0.0,0.0,58,0.00,,,0.00,dv,2013-03-18 01:50:00,
2013-03-17 21:55:00,60.8,49.5,29.90,WSW,257,0.0,0.0,58,0.00,,,0.00,dv,2013-03-18 01:55:00,
2013-03-17 22:00:00,60.7,49.7,29.90,WSW,257,0.0,0.0,59,0.00,,,0.00,dv,2013-03-18 02:00:00,
2013-03-17 22:05:00,60.6,49.6,29.90,WSW,257,0.0,0.0,59,0.00,,,0.00,dv,2013-03-18 02:05:00,
2013-03-17 22:10:00,60.5,49.6,29.90,WSW,257,0.0,0.0,59,0.00,,,0.00,dv,2013-03-18 02:10:00,
2013-03-17 22:15:00,60.4,49.5,29.90,WSW,257,0.0,0.0,59,0.00,,,0.00,dv,2013-03-18 02:15:00,
2013-03-17 22:20:00,60.2,49.3,29.90,WSW,257,0.0,0.0,59,0.00,,,0.00,dv,2013-03-18 02:20:00,
2013-03-17 22:25:00,60.1,49.5,29.90,WSW,257,0.0,0.0,60,0.00,,,0.00,dv,2013-03-18 02:25:00,
2013-03-17 22:30:00,60.0,49.4,29.91,WSW,257,0.0,0.0,60,0.00,,,0.00,dv,2013-03-18 02:30:00,
2013-03-17 22:35:00,59.9,49.3,29.91,WSW,257,0.0,0.0,60,0.00,,,0.00,dv,2013-03-18 02:35:00,
2013-03-17 22:40:00,59.8,49.6,29.91,WSW,257,0.0,0.0,61,0.00,,,0.00,dv,2013-03-18 02:40:00,
2013-03-17 22:45:00,59.6,49.4,29.91,WSW,257,0.0,0.0,61,0.00,,,0.00,dv,2013-03-18 02:45:00,
2013-03-17 22:50:00,59.5,49.3,29.91,WSW,257,0.0,0.0,61,0.00,,,0.00,dv,2013-03-18 02:50:00,
2013-03-17 22:55:00,59.4,49.5,29.92,WSW,257,0.0,0.0,62,0.00,,,0.00,dv,2013-03-18 02:55:00,
2013-03-17 23:00:00,59.2,49.3,29.92,WSW,257,0.0,0.0,62,0.00,,,0.00,dv,2013-03-18 03:00:00,
2013-03-17 23:05:00,59.0,49.1,29.92,WSW,257,0.0,0.0,62,0.00,,,0.00,dv,2013-03-18 03:05:00,
2013-03-17 23:10:00,58.8,49.3,29.92,WSW,257,0.0,0.0,63,0.00,,,0.00,dv,2013-03-18 03:10:00,
2013-03-17 23:15:00,58.7,49.2,29.92,WSW,257,0.0,0.0,63,0.00,,,0.00,dv,2013-03-18 03:15:00,
2013-03-17 23:20:00,58.5,49.3,29.92,WSW,257,0.0,0.0,64,0.00,,,0.00,dv,2013-03-18 03:20:00,
2013-03-17 23:25:00,58.4,49.2,29.92,WSW,257,0.0,0.0,64,0.00,,,0.00,dv,2013-03-18 03:25:00,
2013-03-17 23:30:00,58.3,49.1,29.91,WSW,257,0.0,0.0,64,0.00,,,0.00,dv,2013-03-18 03:30:00,
2013-03-17 23:35:00,58.1,49.2,29.92,WSW,257,0.0,0.0,65,0.00,,,0.00,dv,2013-03-18 03:35:00,
2013-03-17 23:40:00,58.0,49.1,29.92,WSW,257,0.0,0.0,65,0.00,,,0.00,dv,2013-03-18 03:40:00,
2013-03-17 23:45:00,57.9,49.1,29.92,WSW,257,0.0,0.0,65,0.00,,,0.00,dv,2013-03-18 03:45:00,
2013-03-17 23:50:00,57.7,49.2,29.92,WSW,257,0.0,0.0,66,0.00,,,0.00,dv,2013-03-18 03:50:00,
2013-03-17 23:55:00,57.6,49.1,29.92,WSW,257,0.0,0.0,66,0.00,,,0.00,dv,2013-03-18 03:55:00,